sensor_id;sensor_type;location;lat;lon;timestamp;temperature;humidity
11264;DHT22;5689;48.798;9.070;2023-02-17T00:01:26;9.80;89.70
11264;DHT22;5689;48.798;9.070;2023-02-17T00:03:56;9.80;89.30
11264;DHT22;5689;48.798;9.070;2023-02-17T00:06:26;9.80;89.40
11264;DHT22;5689;48.798;9.070;2023-02-17T00:09:00;9.80;89.20
11264;DHT22;5689;48.798;9.070;2023-02-17T00:11:28;9.80;89.10
11264;DHT22;5689;48.798;9.070;2023-02-17T00:13:56;9.80;89.20
11264;DHT22;5689;48.798;9.070;2023-02-17T00:16:25;9.70;89.40
11264;DHT22;5689;48.798;9.070;2023-02-17T00:18:56;9.80;90.00
11264;DHT22;5689;48.798;9.070;2023-02-17T00:21:26;9.70;89.10
11264;DHT22;5689;48.798;9.070;2023-02-17T00:23:56;9.80;89.30
11264;DHT22;5689;48.798;9.070;2023-02-17T00:26:24;9.80;89.20
11264;DHT22;5689;48.798;9.070;2023-02-17T00:28:52;9.80;89.20
11264;DHT22;5689;48.798;9.070;2023-02-17T00:31:22;9.80;89.00
11264;DHT22;5689;48.798;9.070;2023-02-17T00:33:52;9.80;89.00
11264;DHT22;5689;48.798;9.070;2023-02-17T00:36:28;9.80;88.80
11264;DHT22;5689;48.798;9.070;2023-02-17T00:38:56;9.90;88.70
11264;DHT22;5689;48.798;9.070;2023-02-17T00:41:26;9.80;89.00
11264;DHT22;5689;48.798;9.070;2023-02-17T00:43:56;10.00;88.20
11264;DHT22;5689;48.798;9.070;2023-02-17T00:46:25;9.80;88.90
11264;DHT22;5689;48.798;9.070;2023-02-17T00:48:53;9.80;89.20
11264;DHT22;5689;48.798;9.070;2023-02-17T00:51:23;9.80;89.20
11264;DHT22;5689;48.798;9.070;2023-02-17T00:53:52;9.80;89.10
11264;DHT22;5689;48.798;9.070;2023-02-17T00:56:19;9.80;89.20
11264;DHT22;5689;48.798;9.070;2023-02-17T00:58:47;9.80;89.00
11264;DHT22;5689;48.798;9.070;2023-02-17T01:01:16;9.80;89.20
11264;DHT22;5689;48.798;9.070;2023-02-17T01:03:44;9.80;89.20
11264;DHT22;5689;48.798;9.070;2023-02-17T01:06:21;9.90;89.20
11264;DHT22;5689;48.798;9.070;2023-02-17T01:08:51;10.00;88.60
11264;DHT22;5689;48.798;9.070;2023-02-17T01:11:21;10.00;87.70
11264;DHT22;5689;48.798;9.070;2023-02-17T01:13:50;10.00;87.60
11264;DHT22;5689;48.798;9.070;2023-02-17T01:16:20;10.10;87.80
11264;DHT22;5689;48.798;9.070;2023-02-17T01:18:48;10.10;87.70
11264;DHT22;5689;48.798;9.070;2023-02-17T01:21:18;10.00;87.80
11264;DHT22;5689;48.798;9.070;2023-02-17T01:23:48;10.10;87.90
11264;DHT22;5689;48.798;9.070;2023-02-17T01:26:19;10.10;87.90
11264;DHT22;5689;48.798;9.070;2023-02-17T01:28:49;10.20;87.90
11264;DHT22;5689;48.798;9.070;2023-02-17T01:31:24;10.10;87.90
11264;DHT22;5689;48.798;9.070;2023-02-17T01:33:55;10.20;87.90
11264;DHT22;5689;48.798;9.070;2023-02-17T01:36:23;10.10;87.90
11264;DHT22;5689;48.798;9.070;2023-02-17T01:38:51;10.10;87.90
11264;DHT22;5689;48.798;9.070;2023-02-17T01:41:24;10.20;87.90
11264;DHT22;5689;48.798;9.070;2023-02-17T01:44:12;10.10;88.00
11264;DHT22;5689;48.798;9.070;2023-02-17T01:46:41;10.20;87.80
11264;DHT22;5689;48.798;9.070;2023-02-17T01:49:25;10.20;87.90
11264;DHT22;5689;48.798;9.070;2023-02-17T01:51:58;10.10;88.20
11264;DHT22;5689;48.798;9.070;2023-02-17T01:54:34;10.10;88.20
11264;DHT22;5689;48.798;9.070;2023-02-17T01:57:04;10.10;88.00
11264;DHT22;5689;48.798;9.070;2023-02-17T01:59:32;10.20;88.00
11264;DHT22;5689;48.798;9.070;2023-02-17T02:02:02;10.20;87.90
11264;DHT22;5689;48.798;9.070;2023-02-17T02:04:35;10.30;87.80
11264;DHT22;5689;48.798;9.070;2023-02-17T02:07:05;10.20;87.60
11264;DHT22;5689;48.798;9.070;2023-02-17T02:09:41;10.30;87.70
11264;DHT22;5689;48.798;9.070;2023-02-17T02:12:20;10.20;87.70
11264;DHT22;5689;48.798;9.070;2023-02-17T02:14:49;10.30;87.80
11264;DHT22;5689;48.798;9.070;2023-02-17T02:17:27;10.20;87.50
11264;DHT22;5689;48.798;9.070;2023-02-17T02:23:27;10.20;87.90
11264;DHT22;5689;48.798;9.070;2023-02-17T02:26:24;10.20;88.00
11264;DHT22;5689;48.798;9.070;2023-02-17T02:29:18;10.20;87.80
11264;DHT22;5689;48.798;9.070;2023-02-17T02:31:56;10.10;88.00
11264;DHT22;5689;48.798;9.070;2023-02-17T02:34:31;10.10;87.90
11264;DHT22;5689;48.798;9.070;2023-02-17T02:37:11;10.10;87.80
11264;DHT22;5689;48.798;9.070;2023-02-17T02:39:43;10.10;87.80
11264;DHT22;5689;48.798;9.070;2023-02-17T02:42:16;10.20;88.00
11264;DHT22;5689;48.798;9.070;2023-02-17T02:44:46;10.20;87.90
11264;DHT22;5689;48.798;9.070;2023-02-17T02:47:40;10.10;88.00
11264;DHT22;5689;48.798;9.070;2023-02-17T02:50:14;10.20;88.00
11264;DHT22;5689;48.798;9.070;2023-02-17T02:52:54;10.10;88.30
11264;DHT22;5689;48.798;9.070;2023-02-17T02:55:32;10.00;88.60
11264;DHT22;5689;48.798;9.070;2023-02-17T02:58:08;10.00;88.60
11264;DHT22;5689;48.798;9.070;2023-02-17T03:00:45;10.00;88.80
11264;DHT22;5689;48.798;9.070;2023-02-17T03:03:27;9.90;90.00
11264;DHT22;5689;48.798;9.070;2023-02-17T03:06:02;10.00;89.20
11264;DHT22;5689;48.798;9.070;2023-02-17T03:08:35;10.00;88.90
11264;DHT22;5689;48.798;9.070;2023-02-17T03:11:04;10.00;89.00
11264;DHT22;5689;48.798;9.070;2023-02-17T03:13:35;10.00;89.00
11264;DHT22;5689;48.798;9.070;2023-02-17T03:16:07;10.00;89.20
11264;DHT22;5689;48.798;9.070;2023-02-17T03:18:37;10.00;89.10
11264;DHT22;5689;48.798;9.070;2023-02-17T03:21:27;10.10;89.40
11264;DHT22;5689;48.798;9.070;2023-02-17T03:23:56;10.10;89.20
11264;DHT22;5689;48.798;9.070;2023-02-17T03:26:24;10.10;89.50
11264;DHT22;5689;48.798;9.070;2023-02-17T03:28:53;10.20;89.70
11264;DHT22;5689;48.798;9.070;2023-02-17T03:31:21;10.10;89.80
11264;DHT22;5689;48.798;9.070;2023-02-17T03:33:50;10.10;90.00
11264;DHT22;5689;48.798;9.070;2023-02-17T03:36:19;10.10;90.00
11264;DHT22;5689;48.798;9.070;2023-02-17T03:38:47;10.10;90.10
11264;DHT22;5689;48.798;9.070;2023-02-17T03:41:15;10.10;90.20
11264;DHT22;5689;48.798;9.070;2023-02-17T03:43:43;10.10;90.20
11264;DHT22;5689;48.798;9.070;2023-02-17T03:46:12;10.00;90.50
11264;DHT22;5689;48.798;9.070;2023-02-17T03:48:44;9.90;91.10
11264;DHT22;5689;48.798;9.070;2023-02-17T03:51:14;9.90;91.00
11264;DHT22;5689;48.798;9.070;2023-02-17T03:53:44;9.90;91.40
11264;DHT22;5689;48.798;9.070;2023-02-17T03:56:13;9.80;91.40
11264;DHT22;5689;48.798;9.070;2023-02-17T03:58:42;9.80;91.60
11264;DHT22;5689;48.798;9.070;2023-02-17T04:01:11;9.70;91.70
11264;DHT22;5689;48.798;9.070;2023-02-17T04:03:39;9.80;91.90
11264;DHT22;5689;48.798;9.070;2023-02-17T04:06:09;9.80;91.90
11264;DHT22;5689;48.798;9.070;2023-02-17T04:08:38;9.90;92.10
11264;DHT22;5689;48.798;9.070;2023-02-17T04:11:09;9.90;92.30
11264;DHT22;5689;48.798;9.070;2023-02-17T04:13:37;9.80;92.40
11264;DHT22;5689;48.798;9.070;2023-02-17T04:16:06;9.90;92.50
11264;DHT22;5689;48.798;9.070;2023-02-17T04:18:35;9.90;92.60
11264;DHT22;5689;48.798;9.070;2023-02-17T04:21:04;9.90;92.70
11264;DHT22;5689;48.798;9.070;2023-02-17T04:23:33;9.90;92.70
11264;DHT22;5689;48.798;9.070;2023-02-17T04:26:02;10.00;92.30
11264;DHT22;5689;48.798;9.070;2023-02-17T04:28:32;10.00;92.50
11264;DHT22;5689;48.798;9.070;2023-02-17T04:31:00;10.00;92.50
11264;DHT22;5689;48.798;9.070;2023-02-17T04:33:28;10.10;92.60
11264;DHT22;5689;48.798;9.070;2023-02-17T04:35:56;10.00;92.70
11264;DHT22;5689;48.798;9.070;2023-02-17T04:38:26;10.00;92.90
11264;DHT22;5689;48.798;9.070;2023-02-17T04:40:54;10.10;93.00
11264;DHT22;5689;48.798;9.070;2023-02-17T04:43:23;10.10;93.20
11264;DHT22;5689;48.798;9.070;2023-02-17T04:45:53;10.10;93.10
11264;DHT22;5689;48.798;9.070;2023-02-17T04:48:21;10.10;93.30
11264;DHT22;5689;48.798;9.070;2023-02-17T04:50:50;10.10;93.50
11264;DHT22;5689;48.798;9.070;2023-02-17T04:53:18;10.00;93.50
11264;DHT22;5689;48.798;9.070;2023-02-17T04:55:47;10.00;93.50
11264;DHT22;5689;48.798;9.070;2023-02-17T04:58:16;10.00;93.60
11264;DHT22;5689;48.798;9.070;2023-02-17T05:00:46;9.90;94.20
11264;DHT22;5689;48.798;9.070;2023-02-17T05:03:16;9.80;94.50
11264;DHT22;5689;48.798;9.070;2023-02-17T05:05:45;9.80;94.60
11264;DHT22;5689;48.798;9.070;2023-02-17T05:08:13;9.90;94.80
11264;DHT22;5689;48.798;9.070;2023-02-17T05:10:41;9.90;94.80
11264;DHT22;5689;48.798;9.070;2023-02-17T05:13:09;10.00;94.50
11264;DHT22;5689;48.798;9.070;2023-02-17T05:15:37;10.00;94.50
11264;DHT22;5689;48.798;9.070;2023-02-17T05:18:05;10.00;94.50
11264;DHT22;5689;48.798;9.070;2023-02-17T05:20:35;10.10;94.70
11264;DHT22;5689;48.798;9.070;2023-02-17T05:23:03;10.00;94.80
11264;DHT22;5689;48.798;9.070;2023-02-17T05:25:31;10.10;95.00
11264;DHT22;5689;48.798;9.070;2023-02-17T05:27:58;10.00;95.10
11264;DHT22;5689;48.798;9.070;2023-02-17T05:30:27;10.00;95.30
11264;DHT22;5689;48.798;9.070;2023-02-17T05:32:55;9.90;96.40
11264;DHT22;5689;48.798;9.070;2023-02-17T05:35:23;9.90;96.70
11264;DHT22;5689;48.798;9.070;2023-02-17T05:37:52;9.90;97.10
11264;DHT22;5689;48.798;9.070;2023-02-17T05:40:20;9.90;97.50
11264;DHT22;5689;48.798;9.070;2023-02-17T05:42:48;9.90;97.80
11264;DHT22;5689;48.798;9.070;2023-02-17T05:45:16;9.90;98.10
11264;DHT22;5689;48.798;9.070;2023-02-17T05:47:44;9.90;98.40
11264;DHT22;5689;48.798;9.070;2023-02-17T05:50:12;10.00;97.90
11264;DHT22;5689;48.798;9.070;2023-02-17T05:52:40;9.90;98.70
11264;DHT22;5689;48.798;9.070;2023-02-17T05:55:09;10.00;98.60
11264;DHT22;5689;48.798;9.070;2023-02-17T05:57:37;10.00;98.60
11264;DHT22;5689;48.798;9.070;2023-02-17T06:00:06;10.10;98.90
11264;DHT22;5689;48.798;9.070;2023-02-17T06:02:40;10.10;99.10
11264;DHT22;5689;48.798;9.070;2023-02-17T06:05:08;10.10;99.40
11264;DHT22;5689;48.798;9.070;2023-02-17T06:07:36;10.20;99.70
11264;DHT22;5689;48.798;9.070;2023-02-17T06:10:06;10.20;99.80
11264;DHT22;5689;48.798;9.070;2023-02-17T06:12:35;10.20;99.90
11264;DHT22;5689;48.798;9.070;2023-02-17T06:15:04;10.20;99.90
11264;DHT22;5689;48.798;9.070;2023-02-17T06:17:32;10.20;99.90
11264;DHT22;5689;48.798;9.070;2023-02-17T06:20:00;10.20;99.90
11264;DHT22;5689;48.798;9.070;2023-02-17T06:22:28;10.20;99.90
11264;DHT22;5689;48.798;9.070;2023-02-17T06:24:56;10.10;99.90
11264;DHT22;5689;48.798;9.070;2023-02-17T06:27:24;10.00;99.90
11264;DHT22;5689;48.798;9.070;2023-02-17T06:29:54;10.00;99.90
11264;DHT22;5689;48.798;9.070;2023-02-17T06:32:22;10.00;99.90
11264;DHT22;5689;48.798;9.070;2023-02-17T06:34:49;10.10;99.90
11264;DHT22;5689;48.798;9.070;2023-02-17T06:37:17;10.00;99.90
11264;DHT22;5689;48.798;9.070;2023-02-17T06:39:45;10.10;99.90
11264;DHT22;5689;48.798;9.070;2023-02-17T06:42:13;10.00;99.90
11264;DHT22;5689;48.798;9.070;2023-02-17T06:44:41;10.10;99.90
11264;DHT22;5689;48.798;9.070;2023-02-17T06:47:11;10.00;99.90
11264;DHT22;5689;48.798;9.070;2023-02-17T06:49:38;10.10;99.90
11264;DHT22;5689;48.798;9.070;2023-02-17T06:52:06;10.10;99.90
11264;DHT22;5689;48.798;9.070;2023-02-17T06:54:34;10.10;99.90
11264;DHT22;5689;48.798;9.070;2023-02-17T06:57:03;10.10;99.90
11264;DHT22;5689;48.798;9.070;2023-02-17T06:59:31;10.20;99.90
11264;DHT22;5689;48.798;9.070;2023-02-17T07:01:59;10.20;99.90
11264;DHT22;5689;48.798;9.070;2023-02-17T07:04:29;10.20;99.90
11264;DHT22;5689;48.798;9.070;2023-02-17T07:06:57;10.20;99.90
11264;DHT22;5689;48.798;9.070;2023-02-17T07:09:25;10.20;99.90
11264;DHT22;5689;48.798;9.070;2023-02-17T07:11:53;10.20;99.90
11264;DHT22;5689;48.798;9.070;2023-02-17T07:14:21;10.20;99.90
11264;DHT22;5689;48.798;9.070;2023-02-17T07:16:50;10.20;99.90
11264;DHT22;5689;48.798;9.070;2023-02-17T07:19:18;10.20;99.90
11264;DHT22;5689;48.798;9.070;2023-02-17T07:21:48;10.30;99.90
11264;DHT22;5689;48.798;9.070;2023-02-17T07:24:16;10.30;99.90
11264;DHT22;5689;48.798;9.070;2023-02-17T07:26:44;10.30;99.90
11264;DHT22;5689;48.798;9.070;2023-02-17T07:29:12;10.30;99.90
11264;DHT22;5689;48.798;9.070;2023-02-17T07:31:40;10.30;99.90
11264;DHT22;5689;48.798;9.070;2023-02-17T07:34:08;10.30;99.90
11264;DHT22;5689;48.798;9.070;2023-02-17T07:36:36;10.30;99.90
11264;DHT22;5689;48.798;9.070;2023-02-17T07:39:05;10.30;99.90
11264;DHT22;5689;48.798;9.070;2023-02-17T07:41:33;10.30;99.90
11264;DHT22;5689;48.798;9.070;2023-02-17T07:44:07;10.30;99.90
11264;DHT22;5689;48.798;9.070;2023-02-17T07:46:36;10.30;99.90
11264;DHT22;5689;48.798;9.070;2023-02-17T07:49:05;10.30;99.90
11264;DHT22;5689;48.798;9.070;2023-02-17T07:51:33;10.30;99.90
11264;DHT22;5689;48.798;9.070;2023-02-17T07:54:01;10.40;99.90
11264;DHT22;5689;48.798;9.070;2023-02-17T07:56:30;10.40;99.90
11264;DHT22;5689;48.798;9.070;2023-02-17T07:58:59;10.30;99.90
11264;DHT22;5689;48.798;9.070;2023-02-17T08:01:27;10.40;99.90
11264;DHT22;5689;48.798;9.070;2023-02-17T08:03:55;10.40;99.90
11264;DHT22;5689;48.798;9.070;2023-02-17T08:06:24;10.50;99.90
11264;DHT22;5689;48.798;9.070;2023-02-17T08:08:53;10.50;99.90
11264;DHT22;5689;48.798;9.070;2023-02-17T08:11:40;10.60;99.90
11264;DHT22;5689;48.798;9.070;2023-02-17T08:14:31;10.70;99.90
11264;DHT22;5689;48.798;9.070;2023-02-17T08:16:59;10.90;99.90
11264;DHT22;5689;48.798;9.070;2023-02-17T08:19:28;10.90;99.90
11264;DHT22;5689;48.798;9.070;2023-02-17T08:22:12;11.10;99.90
11264;DHT22;5689;48.798;9.070;2023-02-17T08:24:40;11.20;99.90
11264;DHT22;5689;48.798;9.070;2023-02-17T08:27:09;11.20;99.90
11264;DHT22;5689;48.798;9.070;2023-02-17T08:29:37;11.10;99.90
11264;DHT22;5689;48.798;9.070;2023-02-17T08:32:05;11.10;99.90
11264;DHT22;5689;48.798;9.070;2023-02-17T08:34:34;11.00;99.90
11264;DHT22;5689;48.798;9.070;2023-02-17T08:37:04;10.90;99.90
11264;DHT22;5689;48.798;9.070;2023-02-17T08:39:33;11.00;99.90
11264;DHT22;5689;48.798;9.070;2023-02-17T08:42:02;10.80;99.90
11264;DHT22;5689;48.798;9.070;2023-02-17T08:44:33;10.90;99.90
11264;DHT22;5689;48.798;9.070;2023-02-17T08:47:03;11.00;99.90
11264;DHT22;5689;48.798;9.070;2023-02-17T08:49:31;11.10;99.90
11264;DHT22;5689;48.798;9.070;2023-02-17T08:52:00;11.20;99.90
11264;DHT22;5689;48.798;9.070;2023-02-17T08:54:28;11.30;99.90
11264;DHT22;5689;48.798;9.070;2023-02-17T08:56:57;11.10;99.90
11264;DHT22;5689;48.798;9.070;2023-02-17T08:59:25;11.10;99.90
11264;DHT22;5689;48.798;9.070;2023-02-17T09:01:54;11.00;99.90
11264;DHT22;5689;48.798;9.070;2023-02-17T09:04:22;10.90;99.90
11264;DHT22;5689;48.798;9.070;2023-02-17T09:06:52;10.80;99.90
11264;DHT22;5689;48.798;9.070;2023-02-17T09:09:23;10.80;99.90
11264;DHT22;5689;48.798;9.070;2023-02-17T09:11:53;10.70;99.90
11264;DHT22;5689;48.798;9.070;2023-02-17T09:14:22;10.80;99.90
11264;DHT22;5689;48.798;9.070;2023-02-17T09:16:51;10.80;99.90
11264;DHT22;5689;48.798;9.070;2023-02-17T09:19:20;10.80;99.90
11264;DHT22;5689;48.798;9.070;2023-02-17T09:21:49;10.80;99.90
11264;DHT22;5689;48.798;9.070;2023-02-17T09:24:17;10.90;99.90
11264;DHT22;5689;48.798;9.070;2023-02-17T09:26:45;11.00;99.90
11264;DHT22;5689;48.798;9.070;2023-02-17T09:29:13;11.10;99.90
11264;DHT22;5689;48.798;9.070;2023-02-17T09:31:41;11.30;99.90
11264;DHT22;5689;48.798;9.070;2023-02-17T09:34:11;11.40;99.90
11264;DHT22;5689;48.798;9.070;2023-02-17T09:36:41;11.60;99.90
11264;DHT22;5689;48.798;9.070;2023-02-17T09:39:09;11.60;99.90
11264;DHT22;5689;48.798;9.070;2023-02-17T09:41:42;11.80;99.90
11264;DHT22;5689;48.798;9.070;2023-02-17T09:44:18;11.90;99.90
11264;DHT22;5689;48.798;9.070;2023-02-17T09:46:52;12.00;99.90
11264;DHT22;5689;48.798;9.070;2023-02-17T09:49:32;12.10;99.90
11264;DHT22;5689;48.798;9.070;2023-02-17T09:52:08;12.00;99.90
11264;DHT22;5689;48.798;9.070;2023-02-17T09:54:44;12.40;99.90
11264;DHT22;5689;48.798;9.070;2023-02-17T09:57:16;14.10;99.90
11264;DHT22;5689;48.798;9.070;2023-02-17T09:59:49;15.30;99.90
11264;DHT22;5689;48.798;9.070;2023-02-17T10:02:24;15.60;99.90
11264;DHT22;5689;48.798;9.070;2023-02-17T10:04:55;16.50;99.90
11264;DHT22;5689;48.798;9.070;2023-02-17T10:07:29;15.60;99.90
11264;DHT22;5689;48.798;9.070;2023-02-17T10:10:06;14.70;99.90
11264;DHT22;5689;48.798;9.070;2023-02-17T10:12:38;13.90;99.90
11264;DHT22;5689;48.798;9.070;2023-02-17T10:15:09;13.40;99.90
11264;DHT22;5689;48.798;9.070;2023-02-17T10:17:46;13.00;99.90
11264;DHT22;5689;48.798;9.070;2023-02-17T10:20:20;13.10;99.90
11264;DHT22;5689;48.798;9.070;2023-02-17T10:22:53;13.50;99.90
11264;DHT22;5689;48.798;9.070;2023-02-17T10:25:32;13.60;99.90
11264;DHT22;5689;48.798;9.070;2023-02-17T10:28:08;13.40;99.90
11264;DHT22;5689;48.798;9.070;2023-02-17T10:30:42;13.50;99.90
11264;DHT22;5689;48.798;9.070;2023-02-17T10:33:19;13.80;99.90
11264;DHT22;5689;48.798;9.070;2023-02-17T10:35:51;13.90;99.90
11264;DHT22;5689;48.798;9.070;2023-02-17T10:38:34;13.90;99.90
11264;DHT22;5689;48.798;9.070;2023-02-17T10:41:10;14.10;99.90
11264;DHT22;5689;48.798;9.070;2023-02-17T10:43:39;14.40;99.90
11264;DHT22;5689;48.798;9.070;2023-02-17T10:46:12;14.40;99.90
11264;DHT22;5689;48.798;9.070;2023-02-17T10:48:44;14.80;99.90
11264;DHT22;5689;48.798;9.070;2023-02-17T10:51:16;15.00;99.90
11264;DHT22;5689;48.798;9.070;2023-02-17T10:53:48;15.20;99.90
11264;DHT22;5689;48.798;9.070;2023-02-17T10:56:20;15.30;99.90
11264;DHT22;5689;48.798;9.070;2023-02-17T10:58:52;16.90;99.90
11264;DHT22;5689;48.798;9.070;2023-02-17T11:01:21;17.60;99.30
11264;DHT22;5689;48.798;9.070;2023-02-17T11:03:59;16.60;99.90
11264;DHT22;5689;48.798;9.070;2023-02-17T11:06:28;16.30;99.90
11264;DHT22;5689;48.798;9.070;2023-02-17T11:09:01;17.00;99.90
11264;DHT22;5689;48.798;9.070;2023-02-17T11:11:33;17.20;99.70
11264;DHT22;5689;48.798;9.070;2023-02-17T11:14:09;18.50;98.10
11264;DHT22;5689;48.798;9.070;2023-02-17T11:16:41;17.30;98.20
11264;DHT22;5689;48.798;9.070;2023-02-17T11:19:21;16.40;99.80
11264;DHT22;5689;48.798;9.070;2023-02-17T11:21:50;15.50;99.90
11264;DHT22;5689;48.798;9.070;2023-02-17T11:24:20;15.20;99.90
11264;DHT22;5689;48.798;9.070;2023-02-17T11:26:56;15.00;99.90
11264;DHT22;5689;48.798;9.070;2023-02-17T11:29:25;14.70;99.90
11264;DHT22;5689;48.798;9.070;2023-02-17T11:31:55;14.70;99.90
11264;DHT22;5689;48.798;9.070;2023-02-17T11:34:25;14.60;99.90
11264;DHT22;5689;48.798;9.070;2023-02-17T11:36:59;14.50;99.90
11264;DHT22;5689;48.798;9.070;2023-02-17T11:39:28;14.70;99.90
11264;DHT22;5689;48.798;9.070;2023-02-17T11:41:57;14.60;99.90
11264;DHT22;5689;48.798;9.070;2023-02-17T11:44:26;14.60;99.90
11264;DHT22;5689;48.798;9.070;2023-02-17T11:47:04;14.70;99.90
11264;DHT22;5689;48.798;9.070;2023-02-17T11:55:24;14.90;99.90
11264;DHT22;5689;48.798;9.070;2023-02-17T11:58:09;15.30;99.90
11264;DHT22;5689;48.798;9.070;2023-02-17T12:00:45;15.10;99.90
11264;DHT22;5689;48.798;9.070;2023-02-17T12:03:48;14.90;99.90
11264;DHT22;5689;48.798;9.070;2023-02-17T12:06:29;14.90;99.90
11264;DHT22;5689;48.798;9.070;2023-02-17T12:09:08;14.70;99.90
11264;DHT22;5689;48.798;9.070;2023-02-17T12:11:44;14.40;99.90
11264;DHT22;5689;48.798;9.070;2023-02-17T12:14:41;14.30;99.90
11264;DHT22;5689;48.798;9.070;2023-02-17T12:17:15;14.20;99.90
11264;DHT22;5689;48.798;9.070;2023-02-17T12:19:53;14.30;99.90
11264;DHT22;5689;48.798;9.070;2023-02-17T12:22:28;14.30;99.90
11264;DHT22;5689;48.798;9.070;2023-02-17T12:25:07;14.40;99.90
11264;DHT22;5689;48.798;9.070;2023-02-17T12:27:53;14.30;99.90
11264;DHT22;5689;48.798;9.070;2023-02-17T12:30:34;14.30;99.90
11264;DHT22;5689;48.798;9.070;2023-02-17T12:33:17;14.20;99.90
11264;DHT22;5689;48.798;9.070;2023-02-17T12:35:51;14.40;99.90
11264;DHT22;5689;48.798;9.070;2023-02-17T12:38:24;14.50;99.90
11264;DHT22;5689;48.798;9.070;2023-02-17T12:40:55;14.60;99.90
11264;DHT22;5689;48.798;9.070;2023-02-17T12:43:29;14.70;99.90
11264;DHT22;5689;48.798;9.070;2023-02-17T12:46:02;14.60;99.90
11264;DHT22;5689;48.798;9.070;2023-02-17T12:48:35;14.70;99.90
11264;DHT22;5689;48.798;9.070;2023-02-17T12:51:08;14.40;99.90
11264;DHT22;5689;48.798;9.070;2023-02-17T12:53:41;14.40;99.90
11264;DHT22;5689;48.798;9.070;2023-02-17T12:56:39;14.30;99.90
11264;DHT22;5689;48.798;9.070;2023-02-17T12:59:14;14.50;99.90
11264;DHT22;5689;48.798;9.070;2023-02-17T13:01:50;14.50;99.90
11264;DHT22;5689;48.798;9.070;2023-02-17T13:04:22;14.40;99.90
11264;DHT22;5689;48.798;9.070;2023-02-17T13:06:58;14.40;99.90
11264;DHT22;5689;48.798;9.070;2023-02-17T13:09:34;14.40;99.90
11264;DHT22;5689;48.798;9.070;2023-02-17T13:12:15;14.70;99.90
11264;DHT22;5689;48.798;9.070;2023-02-17T13:14:46;14.70;99.90
11264;DHT22;5689;48.798;9.070;2023-02-17T13:17:26;14.70;99.90
11264;DHT22;5689;48.798;9.070;2023-02-17T13:20:22;14.80;99.90
11264;DHT22;5689;48.798;9.070;2023-02-17T13:23:03;14.80;99.90
11264;DHT22;5689;48.798;9.070;2023-02-17T13:25:33;14.80;99.90
11264;DHT22;5689;48.798;9.070;2023-02-17T13:28:16;14.90;99.90
11264;DHT22;5689;48.798;9.070;2023-02-17T13:30:46;14.80;99.90
11264;DHT22;5689;48.798;9.070;2023-02-17T13:33:29;15.10;99.90
11264;DHT22;5689;48.798;9.070;2023-02-17T13:35:57;15.30;99.90
11264;DHT22;5689;48.798;9.070;2023-02-17T13:38:27;15.40;99.90
11264;DHT22;5689;48.798;9.070;2023-02-17T13:40:58;15.70;99.90
11264;DHT22;5689;48.798;9.070;2023-02-17T13:43:28;16.70;99.90
11264;DHT22;5689;48.798;9.070;2023-02-17T13:46:00;16.90;99.90
11264;DHT22;5689;48.798;9.070;2023-02-17T13:48:30;17.70;99.90
11264;DHT22;5689;48.798;9.070;2023-02-17T13:50:59;17.90;99.90
11264;DHT22;5689;48.798;9.070;2023-02-17T13:53:29;17.10;99.90
11264;DHT22;5689;48.798;9.070;2023-02-17T13:56:00;16.10;99.90
11264;DHT22;5689;48.798;9.070;2023-02-17T13:58:30;15.60;99.90
11264;DHT22;5689;48.798;9.070;2023-02-17T14:01:01;15.60;99.90
11264;DHT22;5689;48.798;9.070;2023-02-17T14:03:34;15.60;99.90
11264;DHT22;5689;48.798;9.070;2023-02-17T14:06:03;15.80;99.90
11264;DHT22;5689;48.798;9.070;2023-02-17T14:08:34;16.00;99.90
11264;DHT22;5689;48.798;9.070;2023-02-17T14:11:06;16.50;99.90
11264;DHT22;5689;48.798;9.070;2023-02-17T14:13:36;17.40;99.90
11264;DHT22;5689;48.798;9.070;2023-02-17T14:16:19;18.00;99.90
11264;DHT22;5689;48.798;9.070;2023-02-17T14:19:00;18.20;99.90
11264;DHT22;5689;48.798;9.070;2023-02-17T14:21:29;17.70;99.90
11264;DHT22;5689;48.798;9.070;2023-02-17T14:23:58;17.00;99.90
11264;DHT22;5689;48.798;9.070;2023-02-17T14:26:30;16.90;99.90
11264;DHT22;5689;48.798;9.070;2023-02-17T14:29:00;17.10;99.90
11264;DHT22;5689;48.798;9.070;2023-02-17T14:31:36;17.00;99.90
11264;DHT22;5689;48.798;9.070;2023-02-17T14:34:04;16.50;99.90
11264;DHT22;5689;48.798;9.070;2023-02-17T14:36:34;16.00;99.90
11264;DHT22;5689;48.798;9.070;2023-02-17T14:39:05;15.50;99.90
11264;DHT22;5689;48.798;9.070;2023-02-17T14:41:34;15.20;99.90
11264;DHT22;5689;48.798;9.070;2023-02-17T14:44:02;15.00;99.90
11264;DHT22;5689;48.798;9.070;2023-02-17T14:46:33;14.70;99.90
11264;DHT22;5689;48.798;9.070;2023-02-17T14:49:02;14.80;99.90
11264;DHT22;5689;48.798;9.070;2023-02-17T14:51:32;14.80;99.90
11264;DHT22;5689;48.798;9.070;2023-02-17T14:54:01;14.90;99.90
11264;DHT22;5689;48.798;9.070;2023-02-17T14:56:30;14.70;99.90
11264;DHT22;5689;48.798;9.070;2023-02-17T14:58:59;14.90;99.90
11264;DHT22;5689;48.798;9.070;2023-02-17T15:01:27;15.20;99.90
11264;DHT22;5689;48.798;9.070;2023-02-17T15:03:57;15.80;99.90
11264;DHT22;5689;48.798;9.070;2023-02-17T15:06:26;16.10;99.90
11264;DHT22;5689;48.798;9.070;2023-02-17T15:08:59;16.10;99.90
11264;DHT22;5689;48.798;9.070;2023-02-17T15:11:29;16.10;99.90
11264;DHT22;5689;48.798;9.070;2023-02-17T15:13:58;16.20;99.90
11264;DHT22;5689;48.798;9.070;2023-02-17T15:16:26;16.20;99.90
11264;DHT22;5689;48.798;9.070;2023-02-17T15:18:54;16.10;99.90
11264;DHT22;5689;48.798;9.070;2023-02-17T15:21:26;16.40;99.90
11264;DHT22;5689;48.798;9.070;2023-02-17T15:23:55;15.80;99.90
11264;DHT22;5689;48.798;9.070;2023-02-17T15:26:24;15.60;99.90
11264;DHT22;5689;48.798;9.070;2023-02-17T15:28:52;15.40;99.90
11264;DHT22;5689;48.798;9.070;2023-02-17T15:31:23;15.20;99.90
11264;DHT22;5689;48.798;9.070;2023-02-17T15:33:54;15.20;99.90
11264;DHT22;5689;48.798;9.070;2023-02-17T15:36:25;14.80;99.90
11264;DHT22;5689;48.798;9.070;2023-02-17T15:38:53;14.40;99.90
11264;DHT22;5689;48.798;9.070;2023-02-17T15:41:24;14.10;99.90
11264;DHT22;5689;48.798;9.070;2023-02-17T15:43:54;14.00;99.90
11264;DHT22;5689;48.798;9.070;2023-02-17T15:46:27;13.90;99.90
11264;DHT22;5689;48.798;9.070;2023-02-17T15:48:56;13.90;99.90
11264;DHT22;5689;48.798;9.070;2023-02-17T15:51:26;13.60;99.90
11264;DHT22;5689;48.798;9.070;2023-02-17T15:53:54;13.30;99.90
11264;DHT22;5689;48.798;9.070;2023-02-17T15:56:23;13.30;99.90
11264;DHT22;5689;48.798;9.070;2023-02-17T15:58:52;13.30;99.90
11264;DHT22;5689;48.798;9.070;2023-02-17T16:01:25;13.20;99.90
11264;DHT22;5689;48.798;9.070;2023-02-17T16:03:54;13.00;99.90
11264;DHT22;5689;48.798;9.070;2023-02-17T16:06:23;13.00;99.90
11264;DHT22;5689;48.798;9.070;2023-02-17T16:08:52;12.90;99.90
11264;DHT22;5689;48.798;9.070;2023-02-17T16:11:21;12.90;99.90
11264;DHT22;5689;48.798;9.070;2023-02-17T16:13:50;12.90;99.90
11264;DHT22;5689;48.798;9.070;2023-02-17T16:16:21;12.80;99.90
11264;DHT22;5689;48.798;9.070;2023-02-17T16:18:50;12.80;99.90
11264;DHT22;5689;48.798;9.070;2023-02-17T16:21:18;12.80;99.90
11264;DHT22;5689;48.798;9.070;2023-02-17T16:23:47;12.90;99.90